createdAt,value
2022-08-16T00:01:47.499Z,19.73
2022-08-16T00:06:51.491Z,19.61
2022-08-16T00:11:55.505Z,19.37
2022-08-16T00:17:11.819Z,19.36
2022-08-16T00:22:20.881Z,19.08
2022-08-16T00:27:27.383Z,18.51
2022-08-16T00:32:33.340Z,18.82
2022-08-16T00:37:57.983Z,19.31
2022-08-16T00:42:58.277Z,19.16
2022-08-16T00:48:01.504Z,19.06
2022-08-16T00:53:23.967Z,19.05
2022-08-16T00:58:34.491Z,18.95
2022-08-16T01:03:41.648Z,19.04
2022-08-16T01:08:45.302Z,18.91
2022-08-16T01:13:49.629Z,18.38
2022-08-16T01:19:02.590Z,18.76
2022-08-16T01:24:52.614Z,18.85
2022-08-16T01:30:04.017Z,18.36
2022-08-16T01:35:29.091Z,18.63
2022-08-16T01:40:38.020Z,18.57
2022-08-16T01:45:41.623Z,18.44
2022-08-16T01:51:15.511Z,18.42
2022-08-16T01:56:24.362Z,18.21
2022-08-16T02:01:29.158Z,18.47
2022-08-16T02:06:34.164Z,18.04
2022-08-16T02:11:47.736Z,18.45
2022-08-16T02:16:58.335Z,18.42
2022-08-16T02:22:09.052Z,18.13
2022-08-16T02:27:25.450Z,18.04
2022-08-16T02:32:49.192Z,17.78
2022-08-16T02:37:53.430Z,18.15
2022-08-16T02:43:00.870Z,18.20
2022-08-16T02:48:29.226Z,17.77
2022-08-16T02:53:48.364Z,18.23
2022-08-16T02:58:52.495Z,18.15
2022-08-16T03:04:28.834Z,18.22
2022-08-16T03:09:37.648Z,17.91
2022-08-16T03:14:39.987Z,18.06
2022-08-16T03:19:48.690Z,18.10
2022-08-16T03:25:10.111Z,17.73
2022-08-16T03:30:22.218Z,17.68
2022-08-16T03:35:33.071Z,17.70
2022-08-16T03:40:41.027Z,18.07
2022-08-16T03:45:45.554Z,18.01
2022-08-16T03:50:59.853Z,18.19
2022-08-16T03:56:07.899Z,18.39
2022-08-16T04:01:10.960Z,18.26
2022-08-16T04:06:16.002Z,17.85
2022-08-16T04:11:37.743Z,18.34
2022-08-16T04:16:40.665Z,18.80
2022-08-16T04:22:09.594Z,18.87
2022-08-16T04:27:21.486Z,18.74
2022-08-16T04:32:27.010Z,19.12
2022-08-16T04:37:29.848Z,18.72
2022-08-16T04:42:43.723Z,19.04
2022-08-16T04:47:46.799Z,19.57
2022-08-16T04:53:03.188Z,19.69
2022-08-16T04:58:43.768Z,19.50
2022-08-16T05:03:33.827Z,20.06
2022-08-16T05:08:47.261Z,20.12
2022-08-16T05:13:57.112Z,19.99
2022-08-16T05:19:11.595Z,20.38
2022-08-16T05:24:35.379Z,20.49
2022-08-16T05:30:00.742Z,20.82
2022-08-16T05:35:01.265Z,20.97
2022-08-16T05:40:06.064Z,21.01
2022-08-16T05:45:10.199Z,21.22
2022-08-16T05:50:18.905Z,20.95
2022-08-16T05:55:23.821Z,21.64
2022-08-16T06:00:26.626Z,21.37
2022-08-16T06:05:36.129Z,21.85
2022-08-16T06:10:39.457Z,22.02
2022-08-16T06:16:01.971Z,22.03
2022-08-16T06:21:07.121Z,22.34
2022-08-16T06:26:12.300Z,22.43
2022-08-16T06:31:24.646Z,22.44
2022-08-16T06:36:29.743Z,22.79
2022-08-16T06:41:44.195Z,22.70
2022-08-16T06:46:57.319Z,23.22
2022-08-16T06:52:03.259Z,23.14
2022-08-16T06:57:16.855Z,23.35
2022-08-16T07:02:33.303Z,23.60
2022-08-16T07:07:45.921Z,23.17
2022-08-16T07:13:03.853Z,23.82
2022-08-16T07:18:12.893Z,23.46
2022-08-16T07:23:21.077Z,23.98
2022-08-16T07:28:40.326Z,23.80
2022-08-16T07:33:52.189Z,24.33
2022-08-16T07:39:02.492Z,24.37
2022-08-16T07:44:16.474Z,24.59
2022-08-16T07:49:21.887Z,24.64
2022-08-16T07:54:37.766Z,24.65
2022-08-16T07:59:46.026Z,24.52
2022-08-16T08:04:50.960Z,24.69
2022-08-16T08:09:53.659Z,24.79
2022-08-16T08:14:56.304Z,24.87
2022-08-16T08:19:59.531Z,24.72
2022-08-16T08:25:03.620Z,25.34
2022-08-16T08:30:49.205Z,25.27
2022-08-16T08:35:33.452Z,25.05
2022-08-16T08:40:38.187Z,25.30
2022-08-16T08:45:52.685Z,25.53
2022-08-16T08:50:57.421Z,25.46
2022-08-16T08:56:00.504Z,25.67
2022-08-16T09:01:31.471Z,25.68
2022-08-16T09:06:43.761Z,25.60
2022-08-16T09:12:04.456Z,25.63
2022-08-16T09:17:38.382Z,25.88
2022-08-16T09:22:39.826Z,26.16
2022-08-16T09:27:46.760Z,26.35
2022-08-16T09:33:06.807Z,26.61
2022-08-16T09:38:31.227Z,26.47
2022-08-16T09:43:59.159Z,26.70
2022-08-16T09:48:58.537Z,26.42
2022-08-16T09:54:09.839Z,27.00
2022-08-16T09:59:14.273Z,27.01
2022-08-16T10:04:30.423Z,27.03
2022-08-16T10:09:45.076Z,27.10
2022-08-16T10:14:56.975Z,27.22
2022-08-16T10:20:00.545Z,27.31
2022-08-16T10:25:03.162Z,27.49
2022-08-16T10:30:25.603Z,27.49
2022-08-16T10:35:32.841Z,27.34
2022-08-16T10:40:35.732Z,27.39
2022-08-16T10:45:42.178Z,27.97
2022-08-16T10:51:01.586Z,27.74
2022-08-16T10:56:44.331Z,28.14
2022-08-16T11:01:40.084Z,28.30
2022-08-16T11:07:06.708Z,27.93
2022-08-16T11:12:13.643Z,27.83
2022-08-16T11:17:16.896Z,28.32
2022-08-16T11:22:38.944Z,27.69
2022-08-16T11:27:42.906Z,27.64
2022-08-16T11:32:47.215Z,27.67
2022-08-16T11:38:46.701Z,27.79
2022-08-16T11:43:21.714Z,27.89
2022-08-16T11:48:26.125Z,27.71
2022-08-16T11:53:35.989Z,27.92
2022-08-16T11:58:39.861Z,27.73
2022-08-16T12:03:43.863Z,27.66
2022-08-16T12:08:48.093Z,27.82
2022-08-16T12:13:51.947Z,28.02
2022-08-16T12:18:54.128Z,27.97
2022-08-16T12:23:56.381Z,28.01
2022-08-16T12:28:59.209Z,28.18
2022-08-16T12:34:03.040Z,28.45
2022-08-16T12:39:07.118Z,28.51
2022-08-16T12:44:09.308Z,28.55
2022-08-16T12:49:12.772Z,28.51
2022-08-16T12:54:14.988Z,28.62
2022-08-16T12:59:21.923Z,28.60
2022-08-16T13:04:28.317Z,28.04
2022-08-16T13:09:42.259Z,28.31
2022-08-16T13:14:45.197Z,28.31
2022-08-16T13:20:07.157Z,28.69
2022-08-16T13:25:18.885Z,28.55
2022-08-16T13:30:36.187Z,28.64
2022-08-16T13:35:44.082Z,28.57
2022-08-16T13:40:48.953Z,28.39
2022-08-16T13:45:53.049Z,28.08
2022-08-16T13:51:02.500Z,28.58
2022-08-16T13:56:06.655Z,28.51
2022-08-16T14:01:12.807Z,28.59
2022-08-16T14:06:15.359Z,28.39
2022-08-16T14:11:20.859Z,28.42
2022-08-16T14:16:33.527Z,28.00
2022-08-16T14:21:37.531Z,28.31
2022-08-16T14:26:40.828Z,27.93
2022-08-16T14:31:45.528Z,28.18
2022-08-16T14:36:52.272Z,28.10
2022-08-16T14:41:56.006Z,27.49
2022-08-16T14:46:58.386Z,27.78
2022-08-16T14:52:02.960Z,27.67
2022-08-16T14:57:06.971Z,27.72
2022-08-16T15:02:33.903Z,27.50
2022-08-16T15:07:40.244Z,27.09
2022-08-16T15:12:43.376Z,27.34
2022-08-16T15:17:54.515Z,27.29
2022-08-16T15:23:02.817Z,27.34
2022-08-16T15:28:23.422Z,27.08
2022-08-16T15:33:32.080Z,27.08
2022-08-16T15:38:57.300Z,26.67
2022-08-16T15:44:05.588Z,26.22
2022-08-16T15:49:16.986Z,26.72
2022-08-16T15:54:52.794Z,26.92
2022-08-16T16:00:04.831Z,26.22
2022-08-16T16:05:37.657Z,26.62
2022-08-16T16:10:41.718Z,26.50
2022-08-16T16:16:03.425Z,26.53
2022-08-16T16:21:27.335Z,26.23
2022-08-16T16:26:48.850Z,26.16
2022-08-16T16:31:59.171Z,26.06
2022-08-16T16:37:22.793Z,25.92
2022-08-16T16:42:29.927Z,25.69
2022-08-16T16:47:40.577Z,25.70
2022-08-16T16:53:03.209Z,25.61
2022-08-16T16:58:57.192Z,25.66
2022-08-16T17:04:13.239Z,25.80
2022-08-16T17:09:21.844Z,25.53
2022-08-16T17:14:33.340Z,25.40
2022-08-16T17:19:40.971Z,25.06
2022-08-16T17:24:50.499Z,25.32
2022-08-16T17:29:54.621Z,25.14
2022-08-16T17:35:19.170Z,24.81
2022-08-16T17:40:46.766Z,25.20
2022-08-16T17:45:49.420Z,24.38
2022-08-16T17:50:54.545Z,24.65
2022-08-16T17:55:57.315Z,24.60
2022-08-16T18:01:20.609Z,24.43
2022-08-16T18:06:28.541Z,24.32
2022-08-16T18:11:34.120Z,24.05
2022-08-16T18:16:36.481Z,24.25
2022-08-16T18:21:57.096Z,24.38
2022-08-16T18:27:25.662Z,24.11
2022-08-16T18:32:25.214Z,24.08
2022-08-16T18:37:27.877Z,23.85
2022-08-16T18:42:30.304Z,23.45
2022-08-16T18:47:32.676Z,23.43
2022-08-16T18:52:35.193Z,23.57
2022-08-16T18:57:37.576Z,23.42
2022-08-16T19:02:56.082Z,23.65
2022-08-16T19:08:02.612Z,23.23
2022-08-16T19:13:14.112Z,23.44
2022-08-16T19:18:36.868Z,23.25
2022-08-16T19:23:57.999Z,23.16
2022-08-16T19:29:03.721Z,22.89
2022-08-16T19:34:29.541Z,22.84
2022-08-16T19:39:50.943Z,22.85
2022-08-16T19:44:55.845Z,22.72
2022-08-16T19:49:58.566Z,22.64
2022-08-16T19:55:06.727Z,22.63
2022-08-16T20:00:14.203Z,22.52
2022-08-16T20:05:33.101Z,22.63
2022-08-16T20:10:54.001Z,22.16
2022-08-16T20:15:57.200Z,22.06
2022-08-16T20:20:59.641Z,21.98
2022-08-16T20:26:02.076Z,21.68
2022-08-16T20:31:04.543Z,21.97
2022-08-16T20:36:07.113Z,21.84
2022-08-16T20:41:28.217Z,21.82
2022-08-16T20:46:30.607Z,21.46
2022-08-16T20:51:32.914Z,21.61
2022-08-16T20:56:50.008Z,21.75
2022-08-16T21:02:16.196Z,21.65
2022-08-16T21:07:19.913Z,21.55
2022-08-16T21:12:22.234Z,21.31
2022-08-16T21:17:24.605Z,21.30
2022-08-16T21:22:27.088Z,21.08
2022-08-16T21:27:29.424Z,21.37
2022-08-16T21:32:35.542Z,21.12
2022-08-16T21:37:38.625Z,20.82
2022-08-16T21:42:42.231Z,21.15
2022-08-16T21:47:44.624Z,21.00
2022-08-16T21:52:46.910Z,21.04
2022-08-16T21:57:49.232Z,21.17
2022-08-16T22:02:55.532Z,20.87
2022-08-16T22:08:01.294Z,20.90
2022-08-16T22:13:16.169Z,20.62
2022-08-16T22:18:19.390Z,20.98
2022-08-16T22:23:24.669Z,20.33
2022-08-16T22:28:26.943Z,20.45
2022-08-16T22:33:29.300Z,20.77
2022-08-16T22:38:54.070Z,20.73
2022-08-16T22:43:56.422Z,20.66
2022-08-16T22:49:17.658Z,20.37
2022-08-16T22:54:48.161Z,20.33
2022-08-16T22:59:52.686Z,20.20
2022-08-16T23:05:19.982Z,20.39
2022-08-16T23:10:22.779Z,20.04
2022-08-16T23:15:28.009Z,20.21
2022-08-16T23:20:30.327Z,19.85
2022-08-16T23:25:35.803Z,20.15
2022-08-16T23:30:40.818Z,20.10
2022-08-16T23:35:46.124Z,19.66
2022-08-16T23:41:13.424Z,19.69
2022-08-16T23:46:18.194Z,19.84
2022-08-16T23:51:20.473Z,19.63
2022-08-16T23:56:22.887Z,19.25
